createdAt,value
2022-12-12T00:00:42.918Z,87.62
2022-12-12T00:03:09.416Z,87.48
2022-12-12T00:05:36.169Z,87.29
2022-12-12T00:08:02.595Z,87.27
2022-12-12T00:10:29.389Z,87.31
2022-12-12T00:12:55.820Z,87.30
2022-12-12T00:15:22.275Z,87.16
2022-12-12T00:17:48.977Z,87.21
2022-12-12T00:20:15.508Z,87.28
2022-12-12T00:22:41.998Z,87.17
2022-12-12T00:25:08.653Z,87.22
2022-12-12T00:27:35.143Z,86.87
2022-12-12T00:30:01.673Z,86.78
2022-12-12T00:32:28.629Z,86.71
2022-12-12T00:34:55.035Z,86.85
2022-12-12T00:37:21.482Z,86.82
2022-12-12T00:39:47.889Z,86.82
2022-12-12T00:42:14.323Z,87.04
2022-12-12T00:44:40.818Z,87.21
2022-12-12T00:47:07.523Z,87.41
2022-12-12T00:49:34.138Z,87.49
2022-12-12T00:52:00.523Z,87.20
2022-12-12T00:54:27.091Z,87.28
2022-12-12T00:56:53.517Z,87.31
2022-12-12T00:59:19.922Z,87.60
2022-12-12T01:01:46.885Z,87.65
2022-12-12T01:04:13.598Z,87.50
2022-12-12T01:06:40.175Z,87.38
2022-12-12T01:09:06.589Z,87.50
2022-12-12T01:11:32.972Z,87.41
2022-12-12T01:13:59.379Z,87.28
2022-12-12T01:16:26.064Z,87.50
2022-12-12T01:18:52.681Z,87.44
2022-12-12T01:21:20.548Z,87.32
2022-12-12T01:23:47.758Z,87.37
2022-12-12T01:26:18.116Z,87.40
2022-12-12T01:28:45.316Z,87.29
2022-12-12T01:31:12.607Z,87.25
2022-12-12T01:33:39.169Z,87.17
2022-12-12T01:36:06.019Z,87.01
2022-12-12T01:38:32.618Z,87.01
2022-12-12T01:40:59.045Z,87.05
2022-12-12T01:43:28.290Z,87.19
2022-12-12T01:46:33.333Z,87.10
2022-12-12T01:49:12.915Z,86.86
2022-12-12T01:51:40.606Z,86.95
2022-12-12T01:54:44.961Z,86.92
2022-12-12T01:57:18.033Z,87.22
2022-12-12T01:59:46.046Z,87.21
2022-12-12T02:02:13.238Z,87.55
2022-12-12T02:04:41.071Z,87.34
2022-12-12T02:07:07.677Z,87.66
2022-12-12T02:09:36.898Z,87.14
2022-12-12T02:12:03.702Z,87.27
2022-12-12T02:14:35.068Z,87.32
2022-12-12T02:17:16.483Z,87.39
2022-12-12T02:20:02.881Z,87.38
2022-12-12T02:23:10.581Z,87.19
2022-12-12T02:25:55.577Z,87.25
2022-12-12T02:28:30.833Z,87.13
2022-12-12T02:31:03.083Z,87.02
2022-12-12T02:34:02.070Z,87.02
2022-12-12T02:36:41.613Z,87.14
2022-12-12T02:39:10.941Z,87.03
2022-12-12T02:41:57.238Z,87.04
2022-12-12T02:44:35.782Z,87.00
2022-12-12T02:47:15.401Z,86.90
2022-12-12T02:49:55.845Z,86.83
2022-12-12T02:52:22.564Z,86.65
2022-12-12T02:54:49.012Z,86.78
2022-12-12T02:57:18.344Z,86.69
2022-12-12T03:00:08.298Z,86.67
2022-12-12T03:03:24.940Z,86.55
2022-12-12T03:06:34.025Z,86.68
2022-12-12T03:09:33.185Z,86.75
2022-12-12T03:12:21.356Z,86.83
2022-12-12T03:15:16.438Z,86.76
2022-12-12T03:17:48.734Z,86.69
2022-12-12T03:20:19.273Z,86.56
2022-12-12T03:23:02.645Z,86.75
2022-12-12T03:25:58.694Z,87.05
2022-12-12T03:28:34.771Z,86.89
2022-12-12T03:31:06.634Z,87.04
2022-12-12T03:33:39.791Z,87.06
2022-12-12T03:36:15.954Z,87.26
2022-12-12T03:38:56.724Z,87.26
2022-12-12T03:41:27.809Z,87.26
2022-12-12T03:44:20.003Z,87.20
2022-12-12T03:47:02.962Z,87.09
2022-12-12T03:49:52.020Z,87.07
2022-12-12T03:52:30.196Z,87.01
2022-12-12T03:55:23.011Z,86.91
2022-12-12T03:58:05.276Z,87.00
2022-12-12T04:00:37.196Z,86.99
2022-12-12T04:03:26.314Z,87.40
2022-12-12T04:06:29.890Z,87.56
2022-12-12T04:09:28.727Z,87.61
2022-12-12T04:12:30.334Z,87.29
2022-12-12T04:15:21.028Z,87.47
2022-12-12T04:18:06.414Z,87.42
2022-12-12T04:21:28.478Z,87.04
2022-12-12T04:24:05.451Z,87.05
2022-12-12T04:26:42.441Z,87.02
2022-12-12T04:29:23.965Z,87.38
2022-12-12T04:32:25.881Z,87.66
2022-12-12T04:34:58.729Z,88.10
2022-12-12T04:37:34.019Z,88.22
2022-12-12T04:40:04.974Z,88.23
2022-12-12T04:42:36.701Z,88.52
2022-12-12T04:45:35.990Z,88.66
2022-12-12T04:48:05.847Z,88.53
2022-12-12T04:50:34.632Z,88.63
2022-12-12T04:53:04.778Z,88.55
2022-12-12T04:55:34.524Z,88.47
2022-12-12T04:58:02.292Z,88.40
2022-12-12T05:00:44.415Z,88.78
2022-12-12T05:03:36.121Z,88.83
2022-12-12T05:06:10.633Z,88.98
2022-12-12T05:08:43.582Z,89.06
2022-12-12T05:11:12.093Z,88.89
2022-12-12T05:13:41.337Z,88.64
2022-12-12T05:16:42.850Z,88.57
2022-12-12T05:19:09.539Z,88.51
2022-12-12T05:21:35.944Z,88.47
2022-12-12T05:24:02.636Z,88.85
2022-12-12T05:26:32.401Z,88.60
2022-12-12T05:29:06.720Z,88.56
2022-12-12T05:31:34.109Z,88.72
2022-12-12T05:34:00.669Z,88.29
2022-12-12T05:36:27.069Z,88.34
2022-12-12T05:38:53.683Z,88.26
2022-12-12T05:41:20.080Z,88.37
2022-12-12T05:43:46.641Z,88.21
2022-12-12T05:46:13.107Z,88.24
2022-12-12T05:48:39.627Z,88.32
2022-12-12T05:51:06.183Z,88.45
2022-12-12T05:53:36.443Z,88.64
2022-12-12T05:56:11.356Z,88.64
2022-12-12T05:58:38.497Z,88.69
2022-12-12T06:01:05.562Z,88.66
2022-12-12T06:03:32.917Z,88.71
2022-12-12T06:05:59.756Z,88.76
2022-12-12T06:08:26.202Z,88.72
2022-12-12T06:10:52.706Z,88.79
2022-12-12T06:13:19.129Z,88.87
2022-12-12T06:15:45.728Z,88.73
2022-12-12T06:18:12.302Z,88.52
2022-12-12T06:20:38.729Z,88.40
2022-12-12T06:23:05.213Z,88.44
2022-12-12T06:25:31.636Z,88.55
2022-12-12T06:27:59.236Z,88.63
2022-12-12T06:30:26.026Z,88.77
2022-12-12T06:32:52.495Z,88.95
2022-12-12T06:35:18.999Z,88.94
2022-12-12T06:37:45.346Z,89.01
2022-12-12T06:40:12.495Z,88.93
2022-12-12T06:42:43.235Z,88.57
2022-12-12T06:45:13.069Z,88.56
2022-12-12T06:47:40.296Z,88.45
2022-12-12T06:50:07.007Z,88.49
2022-12-12T06:52:33.530Z,88.20
2022-12-12T06:55:00.061Z,88.43
2022-12-12T06:57:27.016Z,88.71
2022-12-12T06:59:53.439Z,88.61
2022-12-12T07:02:23.334Z,88.60
2022-12-12T07:04:55.305Z,88.72
2022-12-12T07:07:22.151Z,88.68
2022-12-12T07:09:48.630Z,88.97
2022-12-12T07:12:15.055Z,89.13
2022-12-12T07:14:41.535Z,89.10
2022-12-12T07:17:08.271Z,89.35
2022-12-12T07:19:34.740Z,89.54
2022-12-12T07:22:07.460Z,89.58
2022-12-12T07:24:36.135Z,89.47
2022-12-12T07:27:03.173Z,89.57
2022-12-12T07:29:29.597Z,89.23
2022-12-12T07:31:56.187Z,89.05
2022-12-12T07:34:24.122Z,88.97
2022-12-12T07:36:50.547Z,88.60
2022-12-12T07:39:20.804Z,88.42
2022-12-12T07:41:47.777Z,88.29
2022-12-12T07:44:15.966Z,87.82
2022-12-12T07:46:42.495Z,87.52
2022-12-12T07:49:08.930Z,87.86
2022-12-12T07:51:35.542Z,87.72
2022-12-12T07:54:01.933Z,87.37
2022-12-12T07:56:28.699Z,87.28
2022-12-12T07:58:55.557Z,87.52
2022-12-12T08:01:25.083Z,87.30
2022-12-12T08:03:52.446Z,87.27
2022-12-12T08:06:21.432Z,87.60
2022-12-12T08:08:49.806Z,87.19
2022-12-12T08:11:19.429Z,87.35
2022-12-12T08:13:46.349Z,87.30
2022-12-12T08:16:22.372Z,87.43
2022-12-12T08:18:49.757Z,87.40
2022-12-12T08:21:23.171Z,87.45
2022-12-12T08:23:52.107Z,87.49
2022-12-12T08:26:18.958Z,87.47
2022-12-12T08:28:48.996Z,87.30
2022-12-12T08:31:17.360Z,87.10
2022-12-12T08:33:43.861Z,87.23
2022-12-12T08:36:19.224Z,87.35
2022-12-12T08:38:45.633Z,87.06
2022-12-12T08:41:13.512Z,87.22
2022-12-12T08:43:41.307Z,87.25
2022-12-12T08:46:13.679Z,87.30
2022-12-12T08:48:43.393Z,87.52
2022-12-12T08:51:09.800Z,87.62
2022-12-12T08:53:36.326Z,87.88
2022-12-12T08:56:02.911Z,88.04
2022-12-12T08:58:29.426Z,88.20
2022-12-12T09:00:56.686Z,88.43
2022-12-12T09:03:28.974Z,88.39
2022-12-12T09:05:56.024Z,88.51
2022-12-12T09:08:22.613Z,88.48
2022-12-12T09:10:50.515Z,88.53
2022-12-12T09:13:17.380Z,88.38
2022-12-12T09:15:43.902Z,88.34
2022-12-12T09:18:10.364Z,88.13
2022-12-12T09:20:36.869Z,88.02
2022-12-12T09:23:03.433Z,87.76
2022-12-12T09:25:29.887Z,87.60
2022-12-12T09:27:56.596Z,87.53
2022-12-12T09:30:23.109Z,87.53
2022-12-12T09:32:49.590Z,87.45
2022-12-12T09:35:16.190Z,87.48
2022-12-12T09:37:42.956Z,87.26
2022-12-12T09:40:17.956Z,87.30
2022-12-12T09:42:49.319Z,87.28
2022-12-12T09:45:16.564Z,86.79
2022-12-12T09:47:47.794Z,86.97
2022-12-12T09:50:29.550Z,86.87
2022-12-12T09:53:00.413Z,86.89
2022-12-12T09:55:37.457Z,86.85
2022-12-12T09:58:31.319Z,86.26
2022-12-12T10:01:08.846Z,86.35
2022-12-12T10:04:00.000Z,86.20
2022-12-12T10:06:38.886Z,86.07
2022-12-12T10:09:51.196Z,86.07
2022-12-12T10:12:20.660Z,86.08
2022-12-12T10:14:53.086Z,85.92
2022-12-12T10:17:25.844Z,85.60
2022-12-12T10:19:57.762Z,85.27
2022-12-12T10:22:46.928Z,85.20
2022-12-12T10:25:39.633Z,84.92
2022-12-12T10:28:15.992Z,85.08
2022-12-12T10:30:59.660Z,85.16
2022-12-12T10:33:48.279Z,84.70
2022-12-12T10:36:41.035Z,84.72
2022-12-12T10:39:19.771Z,84.72
2022-12-12T10:42:28.013Z,84.76
2022-12-12T10:45:14.674Z,84.79
2022-12-12T10:47:41.362Z,84.32
2022-12-12T10:50:13.311Z,84.48
2022-12-12T10:52:40.186Z,84.55
2022-12-12T10:55:19.062Z,84.01
2022-12-12T10:57:45.724Z,83.86
2022-12-12T11:00:27.347Z,83.97
2022-12-12T11:03:00.216Z,83.79
2022-12-12T11:05:29.777Z,83.66
2022-12-12T11:08:21.919Z,83.42
2022-12-12T11:11:06.524Z,83.05
2022-12-12T11:13:47.057Z,82.05
2022-12-12T11:16:24.993Z,82.18
2022-12-12T11:19:02.259Z,81.97
2022-12-12T11:21:33.035Z,82.15
2022-12-12T11:24:03.122Z,81.54
2022-12-12T11:26:29.985Z,81.41
2022-12-12T11:29:01.070Z,80.32
2022-12-12T11:31:32.403Z,79.03
2022-12-12T11:34:04.694Z,77.83
2022-12-12T11:36:36.317Z,77.20
2022-12-12T11:39:44.809Z,76.42
2022-12-12T11:42:14.288Z,74.51
2022-12-12T11:44:42.865Z,73.45
2022-12-12T11:47:18.695Z,73.26
2022-12-12T11:49:50.732Z,71.07
2022-12-12T11:52:24.461Z,69.18
2022-12-12T11:54:53.975Z,67.64
2022-12-12T11:57:32.563Z,67.37
2022-12-12T12:00:14.045Z,65.19
2022-12-12T12:03:18.552Z,64.40
2022-12-12T12:06:03.901Z,63.58
2022-12-12T12:08:42.317Z,60.72
2022-12-12T12:11:27.657Z,58.62
2022-12-12T12:14:12.880Z,57.04
2022-12-12T12:16:55.895Z,55.99
2022-12-12T12:19:25.310Z,55.81
2022-12-12T12:22:13.233Z,54.18
2022-12-12T12:24:55.075Z,52.40
2022-12-12T12:27:32.221Z,51.56
2022-12-12T12:30:19.968Z,50.09
2022-12-12T12:33:20.580Z,49.35
2022-12-12T12:36:03.587Z,47.42
2022-12-12T12:38:56.806Z,47.09
2022-12-12T12:41:37.698Z,45.74
2022-12-12T12:44:29.347Z,44.88
2022-12-12T12:47:09.788Z,42.75
2022-12-12T12:49:46.025Z,42.12
2022-12-12T12:52:22.560Z,41.24
2022-12-12T12:54:49.384Z,39.50
2022-12-12T12:57:30.030Z,38.96
2022-12-12T13:00:01.162Z,39.43
2022-12-12T13:02:47.212Z,38.78
2022-12-12T13:05:26.548Z,39.26
2022-12-12T13:08:39.913Z,39.51
2022-12-12T13:11:12.250Z,39.31
2022-12-12T13:13:42.842Z,38.67
2022-12-12T13:16:14.199Z,37.85
2022-12-12T13:18:46.315Z,37.81
2022-12-12T13:21:33.093Z,38.04
2022-12-12T13:24:14.594Z,37.23
2022-12-12T13:27:00.446Z,36.29
2022-12-12T13:29:33.018Z,36.01
2022-12-12T13:32:05.375Z,36.04
2022-12-12T13:34:33.953Z,36.40
2022-12-12T13:37:05.951Z,36.68
2022-12-12T13:39:35.845Z,36.74
2022-12-12T13:42:05.845Z,37.30
2022-12-12T13:44:39.857Z,37.66
2022-12-12T13:47:24.696Z,38.23
2022-12-12T13:50:06.994Z,36.59
2022-12-12T13:52:43.116Z,36.97
2022-12-12T13:55:18.894Z,36.65
2022-12-12T13:57:57.679Z,37.46
2022-12-12T14:00:26.124Z,37.03
2022-12-12T14:03:04.671Z,36.50
2022-12-12T14:05:35.847Z,36.42
2022-12-12T14:08:11.481Z,36.60
2022-12-12T14:10:49.946Z,36.86
2022-12-12T14:13:18.060Z,36.12
2022-12-12T14:15:46.520Z,36.08
2022-12-12T14:18:29.930Z,36.46
2022-12-12T14:21:18.961Z,36.32
2022-12-12T14:23:47.555Z,36.45
2022-12-12T14:26:23.262Z,36.27
2022-12-12T14:29:15.538Z,36.76
2022-12-12T14:32:16.540Z,37.74
2022-12-12T14:35:27.936Z,38.20
2022-12-12T14:38:15.352Z,38.85
2022-12-12T14:40:47.970Z,39.39
2022-12-12T14:43:23.024Z,39.72
2022-12-12T14:45:49.908Z,40.42
2022-12-12T14:48:29.278Z,40.56
2022-12-12T14:51:09.137Z,41.60
2022-12-12T14:53:38.737Z,42.96
2022-12-12T14:56:29.758Z,44.22
2022-12-12T14:59:04.590Z,45.61
2022-12-12T15:01:46.858Z,47.12
2022-12-12T15:04:25.585Z,48.70
2022-12-12T15:06:53.976Z,50.11
2022-12-12T15:09:25.933Z,51.45
2022-12-12T15:11:54.799Z,52.73
2022-12-12T15:14:27.936Z,53.95
2022-12-12T15:17:05.514Z,55.33
2022-12-12T15:19:40.853Z,56.53
2022-12-12T15:22:15.942Z,57.48
2022-12-12T15:24:42.542Z,58.46
2022-12-12T15:27:18.805Z,59.44
2022-12-12T15:29:45.536Z,60.57
2022-12-12T15:32:22.725Z,61.72
2022-12-12T15:35:09.463Z,62.71
2022-12-12T15:37:38.550Z,63.67
2022-12-12T15:40:11.206Z,64.43
2022-12-12T15:42:45.297Z,65.25
2022-12-12T15:45:39.984Z,66.09
2022-12-12T15:48:07.962Z,66.64
2022-12-12T15:50:43.574Z,67.08
2022-12-12T15:53:25.330Z,67.57
2022-12-12T15:55:57.540Z,68.11
2022-12-12T15:58:29.655Z,68.64
2022-12-12T16:01:21.628Z,68.85
2022-12-12T16:04:11.353Z,69.69
2022-12-12T16:06:40.579Z,70.36
2022-12-12T16:09:06.949Z,70.68
2022-12-12T16:11:57.575Z,70.97
2022-12-12T16:14:42.364Z,71.34
2022-12-12T16:17:21.334Z,71.76
2022-12-12T16:20:04.508Z,71.99
2022-12-12T16:22:33.150Z,72.76
2022-12-12T16:25:26.399Z,73.05
2022-12-12T16:28:01.929Z,73.41
2022-12-12T16:30:29.043Z,73.65
2022-12-12T16:32:55.623Z,73.98
2022-12-12T16:35:24.163Z,74.25
2022-12-12T16:37:52.510Z,74.38
2022-12-12T16:40:20.998Z,74.90
2022-12-12T16:42:58.950Z,75.23
2022-12-12T16:45:25.581Z,75.33
2022-12-12T16:47:52.200Z,75.68
2022-12-12T16:50:18.640Z,76.18
2022-12-12T16:52:45.168Z,76.38
2022-12-12T16:55:17.595Z,76.79
2022-12-12T16:57:44.108Z,76.95
2022-12-12T17:00:12.516Z,77.25
2022-12-12T17:02:40.251Z,77.52
2022-12-12T17:05:07.395Z,77.84
2022-12-12T17:07:33.796Z,77.80
2022-12-12T17:10:00.303Z,77.89
2022-12-12T17:12:26.699Z,77.86
2022-12-12T17:14:53.212Z,78.06
2022-12-12T17:17:19.603Z,78.22
2022-12-12T17:19:46.131Z,78.24
2022-12-12T17:22:12.699Z,78.28
2022-12-12T17:24:39.295Z,78.39
2022-12-12T17:27:05.689Z,78.68
2022-12-12T17:29:32.138Z,78.97
2022-12-12T17:31:58.679Z,79.01
2022-12-12T17:34:25.169Z,79.06
2022-12-12T17:36:51.644Z,79.26
2022-12-12T17:40:17.649Z,79.45
2022-12-12T17:42:44.359Z,79.60
2022-12-12T17:45:11.349Z,79.55
2022-12-12T17:47:38.107Z,79.56
2022-12-12T17:50:05.432Z,79.62
2022-12-12T17:52:32.480Z,79.87
2022-12-12T17:55:51.812Z,80.60
2022-12-12T17:57:45.575Z,80.36
2022-12-12T18:00:12.756Z,80.39
2022-12-12T18:02:40.120Z,80.32
2022-12-12T18:05:09.685Z,80.17
2022-12-12T18:07:36.803Z,80.06
2022-12-12T18:10:03.638Z,80.12
2022-12-12T18:12:30.075Z,80.10
2022-12-12T18:14:56.513Z,80.27
2022-12-12T18:17:23.035Z,80.48
2022-12-12T18:19:49.583Z,80.53
2022-12-12T18:22:16.021Z,80.76
2022-12-12T18:24:42.554Z,80.88
2022-12-12T18:27:08.943Z,80.93
2022-12-12T18:29:35.430Z,81.05
2022-12-12T18:32:02.063Z,81.37
2022-12-12T18:34:28.640Z,81.47
2022-12-12T18:36:55.095Z,81.30
2022-12-12T18:39:21.582Z,81.52
2022-12-12T18:41:48.084Z,81.75
2022-12-12T18:44:15.685Z,81.73
2022-12-12T18:46:43.904Z,82.13
2022-12-12T18:49:15.558Z,82.07
2022-12-12T18:51:42.912Z,82.04
2022-12-12T18:54:15.096Z,82.10
2022-12-12T18:56:43.580Z,82.16
2022-12-12T18:59:10.095Z,82.31
2022-12-12T19:01:38.457Z,82.39
2022-12-12T19:04:11.768Z,82.60
2022-12-12T19:06:40.556Z,82.57
2022-12-12T19:09:12.708Z,82.54
2022-12-12T19:11:39.231Z,82.60
2022-12-12T19:14:07.797Z,82.89
2022-12-12T19:16:34.772Z,83.02
2022-12-12T19:19:05.032Z,82.98
2022-12-12T19:21:33.847Z,82.96
2022-12-12T19:24:02.787Z,83.14
2022-12-12T19:26:30.332Z,83.33
2022-12-12T19:28:58.029Z,83.60
2022-12-12T19:31:25.470Z,83.88
2022-12-12T19:33:52.512Z,83.57
2022-12-12T19:36:24.009Z,83.52
2022-12-12T19:38:51.302Z,83.60
2022-12-12T19:41:19.786Z,83.59
2022-12-12T19:43:47.634Z,83.70
2022-12-12T19:46:16.777Z,83.61
2022-12-12T19:48:44.485Z,83.73
2022-12-12T19:51:15.155Z,83.81
2022-12-12T19:53:47.172Z,83.97
2022-12-12T19:56:15.380Z,84.03
2022-12-12T19:58:42.317Z,83.97
2022-12-12T20:01:20.823Z,84.14
2022-12-12T20:03:52.323Z,84.17
2022-12-12T20:06:19.415Z,84.39
2022-12-12T20:08:46.377Z,84.81
2022-12-12T20:11:35.471Z,85.01
2022-12-12T20:14:02.012Z,85.32
2022-12-12T20:16:30.545Z,86.44
2022-12-12T20:18:57.796Z,87.25
2022-12-12T20:24:15.229Z,88.37
2022-12-12T20:26:42.132Z,88.54
2022-12-12T20:29:09.632Z,88.68
2022-12-12T20:31:41.487Z,88.57
2022-12-12T20:34:07.922Z,88.44
2022-12-12T20:36:35.399Z,88.21
2022-12-12T20:39:06.533Z,88.39
2022-12-12T20:41:36.914Z,88.29
2022-12-12T20:44:05.447Z,88.19
2022-12-12T20:46:35.771Z,88.06
2022-12-12T20:49:04.739Z,87.72
2022-12-12T20:51:54.739Z,87.47
2022-12-12T20:54:21.336Z,87.29
2022-12-12T20:56:49.421Z,87.20
2022-12-12T20:59:15.938Z,87.04
2022-12-12T21:01:42.493Z,86.76
2022-12-12T21:04:09.520Z,86.60
2022-12-12T21:06:43.149Z,86.27
2022-12-12T21:09:10.830Z,86.04
2022-12-12T21:11:38.404Z,85.79
2022-12-12T21:14:06.026Z,85.55
2022-12-12T21:16:34.909Z,85.72
2022-12-12T21:19:06.031Z,85.51
2022-12-12T21:21:32.670Z,85.71
2022-12-12T21:24:00.098Z,85.63
2022-12-12T21:26:30.505Z,85.52
2022-12-12T21:28:57.903Z,85.32
2022-12-12T21:31:27.573Z,85.42
2022-12-12T21:33:54.671Z,85.51
2022-12-12T21:36:22.643Z,85.33
2022-12-12T21:38:49.864Z,85.27
2022-12-12T21:41:18.682Z,85.02
2022-12-12T21:43:45.380Z,84.94
2022-12-12T21:46:18.004Z,84.94
2022-12-12T21:48:44.481Z,84.85
2022-12-12T21:51:16.261Z,85.47
2022-12-12T21:53:43.125Z,85.50
2022-12-12T21:56:13.947Z,85.75
2022-12-12T21:58:41.811Z,85.96
2022-12-12T22:01:17.649Z,85.95
2022-12-12T22:03:45.604Z,86.04
2022-12-12T22:06:12.803Z,85.98
2022-12-12T22:08:39.732Z,86.02
2022-12-12T22:11:07.637Z,85.81
2022-12-12T22:13:39.683Z,86.11
2022-12-12T22:16:10.552Z,85.92
2022-12-12T22:18:37.248Z,86.00
2022-12-12T22:21:05.412Z,85.84
2022-12-12T22:23:34.076Z,85.90
2022-12-12T22:26:00.698Z,85.74
2022-12-12T22:28:28.518Z,86.08
2022-12-12T22:30:55.722Z,86.12
2022-12-12T22:33:22.282Z,86.23
2022-12-12T22:35:48.680Z,86.07
2022-12-12T22:38:15.060Z,86.29
2022-12-12T22:40:43.827Z,86.15
2022-12-12T22:43:10.241Z,86.01
2022-12-12T22:45:36.649Z,85.84
2022-12-12T22:48:03.228Z,85.61
2022-12-12T22:50:32.394Z,85.46
2022-12-12T22:52:58.858Z,85.33
2022-12-12T22:55:25.263Z,85.36
2022-12-12T22:57:51.722Z,85.26
2022-12-12T23:00:18.644Z,85.31
2022-12-12T23:02:45.071Z,85.19
2022-12-12T23:05:11.841Z,85.09
2022-12-12T23:07:38.508Z,85.24
2022-12-12T23:10:05.398Z,85.02
2022-12-12T23:12:31.794Z,85.24
2022-12-12T23:14:58.253Z,85.04
2022-12-12T23:17:24.673Z,85.19
2022-12-12T23:19:51.152Z,85.31
2022-12-12T23:22:17.730Z,85.39
2022-12-12T23:24:44.669Z,85.71
2022-12-12T23:27:11.105Z,85.38
2022-12-12T23:29:38.026Z,85.43
2022-12-12T23:32:04.536Z,84.98
2022-12-12T23:34:31.071Z,85.54
2022-12-12T23:36:58.165Z,85.24
2022-12-12T23:39:26.171Z,85.19
2022-12-12T23:41:53.477Z,85.21
2022-12-12T23:44:21.853Z,85.46
2022-12-12T23:46:49.104Z,85.51
2022-12-12T23:49:18.868Z,85.51
2022-12-12T23:51:57.012Z,85.69
2022-12-12T23:54:32.122Z,85.64
2022-12-12T23:56:59.579Z,85.77
2022-12-12T23:59:27.003Z,85.99
